createdAt,value
2018-07-17T00:00:57.796Z,101523.07
2018-07-17T00:03:59.992Z,101526.09
2018-07-17T00:07:02.020Z,101526.56
2018-07-17T00:10:04.406Z,101525.06
2018-07-17T00:13:06.431Z,101522.70
2018-07-17T00:16:08.702Z,101522.87
2018-07-17T00:19:11.834Z,101522.01
2018-07-17T00:22:14.532Z,101523.94
2018-07-17T00:25:16.709Z,101518.34
2018-07-17T00:28:18.773Z,101515.62
2018-07-17T00:31:20.940Z,101516.40
2018-07-17T00:34:23.004Z,101517.45
2018-07-17T00:37:25.120Z,101515.32
2018-07-17T00:40:27.258Z,101512.99
2018-07-17T00:43:29.312Z,101508.01
2018-07-17T00:46:31.371Z,101509.71
2018-07-17T00:49:33.554Z,101505.39
2018-07-17T00:52:35.624Z,101510.42
2018-07-17T00:55:37.849Z,101512.02
2018-07-17T00:58:39.964Z,101513.31
2018-07-17T01:01:47.789Z,101511.40
2018-07-17T01:04:55.430Z,101511.83
2018-07-17T01:08:03.367Z,101511.28
2018-07-17T01:11:11.320Z,101509.73
2018-07-17T01:14:20.602Z,101505.24
2018-07-17T01:17:23.169Z,101503.94
2018-07-17T01:20:25.435Z,101505.16
2018-07-17T01:23:27.550Z,101503.84
2018-07-17T01:26:29.614Z,101498.86
2018-07-17T01:29:31.661Z,101506.98
2018-07-17T01:32:33.847Z,101507.94
2018-07-17T01:35:35.934Z,101510.56
2018-07-17T01:38:38.199Z,101512.18
2018-07-17T01:41:40.961Z,101511.15
2018-07-17T01:44:44.165Z,101510.31
2018-07-17T01:47:46.245Z,101510.50
2018-07-17T01:50:50.375Z,101509.12
2018-07-17T01:53:52.546Z,101503.40
2018-07-17T01:56:54.602Z,101505.34
2018-07-17T01:59:56.723Z,101500.10
2018-07-17T02:02:58.688Z,101501.54
2018-07-17T02:06:00.823Z,101500.29
2018-07-17T02:09:03.161Z,101498.87
2018-07-17T02:12:05.171Z,101498.86
2018-07-17T02:15:07.198Z,101503.00
2018-07-17T02:18:09.275Z,101507.29
2018-07-17T02:21:11.473Z,101504.94
2018-07-17T02:24:14.643Z,101501.45
2018-07-17T02:27:16.751Z,101499.67
2018-07-17T02:30:20.888Z,101507.08
2018-07-17T02:33:22.996Z,101512.73
2018-07-17T02:36:25.085Z,101512.63
2018-07-17T02:39:27.226Z,101511.49
2018-07-17T02:42:29.197Z,101513.93
2018-07-17T02:45:31.271Z,101525.49
2018-07-17T02:48:33.460Z,101531.61
2018-07-17T02:51:35.527Z,101536.78
2018-07-17T02:54:37.589Z,101532.82
2018-07-17T02:57:39.655Z,101528.44
2018-07-17T03:00:41.624Z,101528.54
2018-07-17T03:03:44.687Z,101529.94
2018-07-17T03:06:46.939Z,101537.81
2018-07-17T03:09:49.049Z,101540.26
2018-07-17T03:12:51.500Z,101545.76
2018-07-17T03:15:53.642Z,101548.61
2018-07-17T03:18:55.764Z,101546.94
2018-07-17T03:21:57.736Z,101552.22
2018-07-17T03:24:59.929Z,101557.40
2018-07-17T03:28:02.096Z,101559.28
2018-07-17T03:31:06.106Z,101551.27
2018-07-17T03:34:10.228Z,101565.94
2018-07-17T03:37:13.204Z,101572.15
2018-07-17T03:40:15.289Z,101577.89
2018-07-17T03:43:17.452Z,101577.84
2018-07-17T03:46:19.630Z,101577.85
2018-07-17T03:49:21.724Z,101579.56
2018-07-17T03:52:23.785Z,101582.50
2018-07-17T03:55:25.968Z,101588.91
2018-07-17T03:58:28.071Z,101578.53
2018-07-17T04:01:30.045Z,101584.79
2018-07-17T04:04:32.164Z,101589.87
2018-07-17T04:07:35.038Z,101584.19
2018-07-17T04:10:37.174Z,101585.62
2018-07-17T04:13:39.124Z,101582.91
2018-07-17T04:16:46.028Z,101585.47
2018-07-17T04:19:48.096Z,101584.62
2018-07-17T04:22:50.036Z,101588.46
2018-07-17T04:25:54.111Z,101591.60
2018-07-17T04:28:56.352Z,101590.61
2018-07-17T04:31:59.445Z,101588.12
2018-07-17T04:35:01.652Z,101589.44
2018-07-17T04:38:03.807Z,101584.94
2018-07-17T04:41:06.158Z,101584.66
2018-07-17T04:44:09.144Z,101583.90
2018-07-17T04:47:11.100Z,101589.56
2018-07-17T04:50:13.307Z,101598.23
2018-07-17T04:53:15.464Z,101597.68
2018-07-17T04:56:19.025Z,101600.91
2018-07-17T04:59:21.732Z,101601.27
2018-07-17T05:02:23.829Z,101598.25
2018-07-17T05:05:25.883Z,101590.99
2018-07-17T05:08:27.973Z,101590.91
2018-07-17T05:11:31.170Z,101598.77
2018-07-17T05:14:33.329Z,101603.37
2018-07-17T05:17:35.367Z,101605.07
2018-07-17T05:20:37.481Z,101609.32
2018-07-17T05:23:39.727Z,101617.65
2018-07-17T05:26:41.800Z,101628.92
2018-07-17T05:29:44.575Z,101633.98
2018-07-17T05:32:46.611Z,101632.66
2018-07-17T05:35:48.626Z,101631.45
2018-07-17T05:38:50.697Z,101631.24
2018-07-17T05:41:52.788Z,101632.40
2018-07-17T05:44:54.774Z,101632.26
2018-07-17T05:47:56.927Z,101631.89
2018-07-17T05:50:59.044Z,101634.96
2018-07-17T05:54:01.242Z,101638.77
2018-07-17T05:57:03.437Z,101636.90
2018-07-17T06:00:06.442Z,101641.35
2018-07-17T06:03:08.483Z,101642.67
2018-07-17T06:06:11.588Z,101644.00
2018-07-17T06:09:14.377Z,101639.13
2018-07-17T06:12:17.459Z,101639.62
2018-07-17T06:15:19.469Z,101635.11
2018-07-17T06:18:21.595Z,101641.10
2018-07-17T06:21:23.809Z,101641.63
2018-07-17T06:24:26.025Z,101641.82
2018-07-17T06:27:28.059Z,101635.06
2018-07-17T06:30:30.223Z,101637.55
2018-07-17T06:33:32.330Z,101641.32
2018-07-17T06:36:34.581Z,101635.42
2018-07-17T06:39:38.136Z,101639.44
2018-07-17T06:42:40.396Z,101645.51
2018-07-17T06:45:42.559Z,101646.63
2018-07-17T06:48:44.604Z,101646.93
2018-07-17T06:51:46.788Z,101646.19
2018-07-17T06:54:48.781Z,101643.04
2018-07-17T06:57:50.841Z,101640.81
2018-07-17T07:00:52.901Z,101642.45
2018-07-17T07:03:55.025Z,101642.86
2018-07-17T07:06:57.147Z,101642.45
2018-07-17T07:09:59.164Z,101635.04
2018-07-17T07:13:02.332Z,101637.12
2018-07-17T07:16:05.430Z,101635.53
2018-07-17T07:19:07.453Z,101632.35
2018-07-17T07:22:09.641Z,101632.76
2018-07-17T07:25:11.579Z,101626.39
2018-07-17T07:28:13.521Z,101622.32
2018-07-17T07:31:15.510Z,101623.90
2018-07-17T07:34:18.607Z,101626.02
2018-07-17T07:37:20.783Z,101622.31
2018-07-17T07:40:22.740Z,101616.45
2018-07-17T07:43:24.856Z,101618.05
2018-07-17T07:46:26.803Z,101618.30
2018-07-17T07:49:28.861Z,101619.70
2018-07-17T07:52:31.029Z,101625.32
2018-07-17T07:55:33.041Z,101621.54
2018-07-17T07:58:35.064Z,101619.08
2018-07-17T08:01:38.159Z,101621.47
2018-07-17T08:04:40.274Z,101622.13
2018-07-17T08:07:42.313Z,101620.71
2018-07-17T08:10:44.552Z,101619.35
2018-07-17T08:13:46.731Z,101618.15
2018-07-17T08:16:48.839Z,101615.25
2018-07-17T08:19:51.008Z,101617.78
2018-07-17T08:22:53.114Z,101613.15
2018-07-17T08:25:55.348Z,101613.64
2018-07-17T08:28:57.423Z,101609.85
2018-07-17T08:31:59.636Z,101612.26
2018-07-17T08:35:01.639Z,101605.85
2018-07-17T08:38:03.763Z,101621.68
2018-07-17T08:41:05.800Z,101614.63
2018-07-17T08:44:08.600Z,101613.09
2018-07-17T08:47:11.011Z,101608.47
2018-07-17T08:50:13.079Z,101606.65
2018-07-17T08:53:16.236Z,101608.98
2018-07-17T08:56:18.300Z,101608.43
2018-07-17T08:59:20.471Z,101606.34
2018-07-17T09:02:22.513Z,101604.98
2018-07-17T09:05:24.788Z,101604.19
2018-07-17T09:08:26.928Z,101604.86
2018-07-17T09:11:29.036Z,101608.20
2018-07-17T09:14:31.144Z,101600.41
2018-07-17T09:17:33.299Z,101610.89
2018-07-17T09:20:35.468Z,101608.95
2018-07-17T09:23:38.674Z,101607.20
2018-07-17T09:26:40.832Z,101606.66
2018-07-17T09:29:42.871Z,101611.61
2018-07-17T09:32:44.955Z,101608.29
2018-07-17T09:35:46.908Z,101602.03
2018-07-17T09:38:49.060Z,101600.34
2018-07-17T09:41:52.120Z,101600.88
2018-07-17T09:44:54.127Z,101597.54
2018-07-17T09:47:56.306Z,101601.03
2018-07-17T09:50:58.315Z,101601.04
2018-07-17T09:54:00.484Z,101604.52
2018-07-17T09:57:02.705Z,101600.17
2018-07-17T10:00:04.863Z,101598.88
2018-07-17T10:03:07.904Z,101597.42
2018-07-17T10:06:10.130Z,101599.66
2018-07-17T10:09:12.260Z,101598.00
2018-07-17T10:12:14.343Z,101601.84
2018-07-17T10:15:16.553Z,101597.65
2018-07-17T10:18:18.562Z,101598.43
2018-07-17T10:21:20.632Z,101594.75
2018-07-17T10:24:22.871Z,101594.70
2018-07-17T10:27:24.867Z,101597.51
2018-07-17T10:30:26.956Z,101591.29
2018-07-17T10:33:28.957Z,101585.49
2018-07-17T10:36:31.056Z,101581.94
2018-07-17T10:39:33.112Z,101582.01
2018-07-17T10:42:38.511Z,101569.84
2018-07-17T10:45:40.569Z,101570.69
2018-07-17T10:48:42.615Z,101566.35
2018-07-17T10:51:45.776Z,101563.41
2018-07-17T10:54:47.864Z,101560.85
2018-07-17T10:57:50.179Z,101558.63
2018-07-17T11:00:52.296Z,101562.35
2018-07-17T11:03:54.304Z,101557.81
2018-07-17T11:06:57.683Z,101565.94
2018-07-17T11:09:59.900Z,101564.55
2018-07-17T11:13:01.898Z,101555.61
2018-07-17T11:16:04.176Z,101549.33
2018-07-17T11:19:08.644Z,101542.89
2018-07-17T11:22:11.640Z,101545.19
2018-07-17T11:25:13.713Z,101545.96
2018-07-17T11:28:15.768Z,101545.62
2018-07-17T11:31:17.836Z,101544.11
2018-07-17T11:34:19.914Z,101540.67
2018-07-17T11:37:22.042Z,101536.10
2018-07-17T11:40:24.139Z,101538.85
2018-07-17T11:43:26.540Z,101546.57
2018-07-17T11:46:28.746Z,101555.10
2018-07-17T11:49:30.812Z,101568.40
2018-07-17T11:52:32.937Z,101580.11
2018-07-17T11:55:35.040Z,101593.61
2018-07-17T11:58:37.024Z,101603.99
2018-07-17T12:01:40.184Z,101608.92
2018-07-17T12:04:42.249Z,101608.92
2018-07-17T12:07:44.517Z,101613.53
2018-07-17T12:10:46.593Z,101609.24
2018-07-17T12:13:48.628Z,101620.41
2018-07-17T12:16:51.029Z,101611.79
2018-07-17T12:19:53.229Z,101628.73
2018-07-17T12:22:55.204Z,101640.16
2018-07-17T12:25:57.190Z,101647.92
2018-07-17T12:28:59.139Z,101661.03
2018-07-17T12:32:01.197Z,101662.98
2018-07-17T12:35:04.433Z,101673.79
2018-07-17T12:38:06.665Z,101680.30
2018-07-17T12:41:09.539Z,101692.20
2018-07-17T12:44:11.622Z,101705.19
2018-07-17T12:47:13.716Z,101711.50
2018-07-17T12:50:15.865Z,101744.07
2018-07-17T12:53:17.908Z,101750.52
2018-07-17T12:56:19.986Z,101767.15
2018-07-17T12:59:22.055Z,101759.44
2018-07-17T13:02:24.160Z,101760.58
2018-07-17T13:05:26.305Z,101733.87
2018-07-17T13:08:28.272Z,101704.05
2018-07-17T13:11:30.420Z,101698.16
2018-07-17T13:14:32.519Z,101691.43
2018-07-17T13:17:34.819Z,101688.05
2018-07-17T13:20:36.719Z,101667.03
2018-07-17T13:23:38.723Z,101661.12
2018-07-17T13:26:40.776Z,101652.55
2018-07-17T13:29:42.870Z,101663.20
2018-07-17T13:32:44.923Z,101661.26
2018-07-17T13:35:46.970Z,101668.44
2018-07-17T13:38:50.310Z,101669.21
2018-07-17T13:41:52.428Z,101677.04
2018-07-17T13:44:54.895Z,101691.46
2018-07-17T13:47:56.987Z,101681.06
2018-07-17T13:50:59.091Z,101666.01
2018-07-17T13:54:01.126Z,101661.48
2018-07-17T13:57:03.101Z,101661.00
2018-07-17T14:00:07.329Z,101661.80
2018-07-17T14:03:09.352Z,101643.90
2018-07-17T14:06:11.551Z,101633.79
2018-07-17T14:09:13.563Z,101608.70
2018-07-17T14:12:16.097Z,101596.21
2018-07-17T14:15:18.210Z,101589.35
2018-07-17T14:18:21.072Z,101589.09
2018-07-17T14:21:23.133Z,101575.33
2018-07-17T14:24:25.215Z,101564.20
2018-07-17T14:27:27.320Z,101562.12
2018-07-17T14:30:30.450Z,101555.15
2018-07-17T14:33:32.508Z,101559.55
2018-07-17T14:36:34.527Z,101555.07
2018-07-17T14:39:37.520Z,101556.04
2018-07-17T14:42:40.579Z,101553.45
2018-07-17T14:45:42.685Z,101555.56
2018-07-17T14:48:44.800Z,101549.80
2018-07-17T14:51:46.929Z,101546.74
2018-07-17T14:54:49.157Z,101544.27
2018-07-17T14:57:52.518Z,101544.29
2018-07-17T15:00:54.556Z,101543.34
2018-07-17T15:03:56.563Z,101539.11
2018-07-17T15:06:59.736Z,101528.14
2018-07-17T15:10:02.181Z,101529.61
2018-07-17T15:13:04.313Z,101531.62
2018-07-17T15:16:06.595Z,101527.71
2018-07-17T15:19:10.466Z,101525.05
2018-07-17T15:22:12.535Z,101519.51
2018-07-17T15:25:14.498Z,101518.44
2018-07-17T15:28:16.698Z,101513.19
2018-07-17T15:31:18.637Z,101509.69
2018-07-17T15:34:20.814Z,101513.98
2018-07-17T15:37:23.539Z,101519.33
2018-07-17T15:40:25.729Z,101527.55
2018-07-17T15:43:27.809Z,101515.78
2018-07-17T15:46:29.876Z,101520.06
2018-07-17T15:49:32.523Z,101526.19
2018-07-17T15:52:34.768Z,101531.93
2018-07-17T15:55:36.963Z,101536.64
2018-07-17T15:58:40.056Z,101554.13
2018-07-17T16:01:42.281Z,101595.35
2018-07-17T16:04:44.436Z,101591.69
2018-07-17T16:07:46.603Z,101598.84
2018-07-17T16:10:48.695Z,101604.95
2018-07-17T16:13:50.928Z,101604.32
2018-07-17T16:16:53.083Z,101611.60
2018-07-17T16:19:55.739Z,101598.31
2018-07-17T16:22:57.796Z,101590.08
2018-07-17T16:25:59.955Z,101595.37
2018-07-17T16:29:02.125Z,101591.26
2018-07-17T16:32:04.297Z,101588.65
2018-07-17T16:35:06.403Z,101581.61
2018-07-17T16:38:08.363Z,101574.29
2018-07-17T16:41:11.625Z,101562.94
2018-07-17T16:44:13.822Z,101559.58
2018-07-17T16:47:15.833Z,101557.31
2018-07-17T16:50:17.844Z,101556.14
2018-07-17T16:53:19.843Z,101558.72
2018-07-17T16:56:22.110Z,101559.08
2018-07-17T16:59:24.304Z,101556.85
2018-07-17T17:02:26.336Z,101555.19
2018-07-17T17:05:28.315Z,101548.61
2018-07-17T17:08:30.406Z,101558.10
2018-07-17T17:11:32.591Z,101555.00
2018-07-17T17:14:38.442Z,101556.85
2018-07-17T17:17:41.603Z,101560.03
2018-07-17T17:20:43.849Z,101559.83
2018-07-17T17:23:46.052Z,101564.50
2018-07-17T17:26:48.014Z,101561.11
2018-07-17T17:29:50.439Z,101560.89
2018-07-17T17:32:52.713Z,101557.07
2018-07-17T17:35:55.924Z,101561.39
2018-07-17T17:38:58.084Z,101562.07
2018-07-17T17:42:00.231Z,101566.88
2018-07-17T17:45:02.209Z,101567.63
2018-07-17T17:48:04.582Z,101566.46
2018-07-17T17:51:06.999Z,101566.34
2018-07-17T17:54:09.015Z,101575.79
2018-07-17T17:57:12.238Z,101574.38
2018-07-17T18:00:14.324Z,101575.23
2018-07-17T18:03:16.775Z,101585.05
2018-07-17T18:06:19.019Z,101588.30
2018-07-17T18:09:21.100Z,101592.17
2018-07-17T18:12:23.239Z,101590.21
2018-07-17T18:15:25.229Z,101591.92
2018-07-17T18:18:27.588Z,101594.02
2018-07-17T18:21:29.608Z,101593.44
2018-07-17T18:24:31.820Z,101597.74
2018-07-17T18:27:33.844Z,101600.52
2018-07-17T18:30:36.034Z,101602.73
2018-07-17T18:33:38.169Z,101608.23
2018-07-17T18:36:42.342Z,101606.90
2018-07-17T18:39:44.494Z,101613.73
2018-07-17T18:42:46.638Z,101610.49
2018-07-17T18:45:48.604Z,101617.33
2018-07-17T18:48:50.839Z,101614.68
2018-07-17T18:51:52.957Z,101620.76
2018-07-17T18:54:55.038Z,101624.09
2018-07-17T18:57:57.227Z,101626.48
2018-07-17T19:00:59.336Z,101633.07
2018-07-17T19:04:01.395Z,101632.57
2018-07-17T19:07:03.706Z,101633.80
2018-07-17T19:10:05.850Z,101635.81
2018-07-17T19:13:08.081Z,101638.87
2018-07-17T19:16:11.412Z,101641.92
2018-07-17T19:19:13.431Z,101646.62
2018-07-17T19:22:15.479Z,101656.10
2018-07-17T19:25:17.727Z,101655.53
2018-07-17T19:28:19.738Z,101663.02
2018-07-17T19:31:21.900Z,101662.32
2018-07-17T19:34:24.130Z,101669.75
2018-07-17T19:37:26.372Z,101675.83
2018-07-17T19:40:28.435Z,101674.04
2018-07-17T19:43:30.458Z,101676.93
2018-07-17T19:46:32.581Z,101681.89
2018-07-17T19:49:34.607Z,101688.50
2018-07-17T19:52:36.811Z,101694.44
2018-07-17T19:55:38.815Z,101697.70
2018-07-17T19:58:41.984Z,101701.18
2018-07-17T20:01:44.045Z,101701.22
2018-07-17T20:04:46.231Z,101708.61
2018-07-17T20:07:49.356Z,101712.17
2018-07-17T20:10:51.574Z,101714.95
2018-07-17T20:13:53.740Z,101714.49
2018-07-17T20:16:55.796Z,101722.33
2018-07-17T20:19:57.792Z,101724.49
2018-07-17T20:22:59.945Z,101726.29
2018-07-17T20:26:01.956Z,101736.31
2018-07-17T20:29:04.416Z,101744.46
2018-07-17T20:32:06.620Z,101745.82
2018-07-17T20:35:08.712Z,101743.31
2018-07-17T20:38:11.474Z,101739.30
2018-07-17T20:41:13.604Z,101738.49
2018-07-17T20:44:15.763Z,101735.64
2018-07-17T20:47:18.078Z,101733.81
2018-07-17T20:50:21.243Z,101740.51
2018-07-17T20:53:23.424Z,101739.82
2018-07-17T20:56:25.472Z,101737.07
2018-07-17T20:59:27.609Z,101741.15
2018-07-17T21:02:29.814Z,101739.19
2018-07-17T21:05:31.904Z,101742.40
2018-07-17T21:08:34.061Z,101740.41
2018-07-17T21:11:36.340Z,101739.61
2018-07-17T21:14:38.417Z,101748.90
2018-07-17T21:17:41.415Z,101752.06
2018-07-17T21:20:43.489Z,101749.08
2018-07-17T21:23:45.636Z,101757.71
2018-07-17T21:26:47.833Z,101756.29
2018-07-17T21:29:50.280Z,101759.53
2018-07-17T21:32:52.483Z,101757.43
2018-07-17T21:35:54.611Z,101759.19
2018-07-17T21:38:57.887Z,101765.34
2018-07-17T21:42:00.075Z,101760.84
2018-07-17T21:45:02.224Z,101775.82
2018-07-17T21:48:04.539Z,101786.19
2018-07-17T21:51:06.661Z,101805.04
2018-07-17T21:54:08.916Z,101811.05
2018-07-17T21:57:10.953Z,101813.13
2018-07-17T22:00:13.210Z,101809.43
2018-07-17T22:03:15.206Z,101819.56
2018-07-17T22:06:17.743Z,101821.63
2018-07-17T22:09:19.825Z,101820.81
2018-07-17T22:12:21.814Z,101826.34
2018-07-17T22:15:23.988Z,101829.26
2018-07-17T22:18:26.217Z,101837.07
2018-07-17T22:21:28.323Z,101835.72
2018-07-17T22:24:30.406Z,101836.28
2018-07-17T22:27:32.462Z,101833.59
2018-07-17T22:30:36.627Z,101832.83
2018-07-17T22:33:38.652Z,101833.97
2018-07-17T22:36:40.815Z,101825.11
2018-07-17T22:39:44.036Z,101827.31
2018-07-17T22:42:46.364Z,101833.31
2018-07-17T22:45:48.388Z,101831.95
2018-07-17T22:48:51.460Z,101833.80
2018-07-17T22:51:54.576Z,101829.50
2018-07-17T22:54:56.568Z,101842.28
2018-07-17T22:58:02.884Z,101837.63
2018-07-17T23:01:05.575Z,101839.46
2018-07-17T23:04:07.772Z,101840.28
2018-07-17T23:07:09.896Z,101833.44
2018-07-17T23:10:13.236Z,101836.51
2018-07-17T23:13:15.370Z,101841.93
2018-07-17T23:16:17.337Z,101843.17
2018-07-17T23:19:19.549Z,101850.64
2018-07-17T23:22:28.912Z,101850.97
2018-07-17T23:25:32.019Z,101845.61
2018-07-17T23:28:34.119Z,101847.36
2018-07-17T23:31:36.300Z,101848.40
2018-07-17T23:34:38.396Z,101847.57
2018-07-17T23:37:40.376Z,101853.30
2018-07-17T23:40:43.219Z,101852.78
2018-07-17T23:43:45.276Z,101858.32
2018-07-17T23:46:47.218Z,101859.73
2018-07-17T23:49:51.354Z,101863.86
2018-07-17T23:52:54.494Z,101867.76
2018-07-17T23:55:56.631Z,101867.87
2018-07-17T23:58:58.827Z,101866.33
